createdAt,value
2023-02-08T00:00:10.459Z,1.00
2023-02-08T00:02:40.266Z,0.90
2023-02-08T00:05:08.958Z,1.10
2023-02-08T00:07:37.243Z,1.20
2023-02-08T00:10:07.004Z,1.30
2023-02-08T00:12:35.394Z,1.30
2023-02-08T00:15:03.662Z,1.20
2023-02-08T00:17:32.325Z,1.20
2023-02-08T00:20:01.848Z,1.10
2023-02-08T00:22:29.994Z,1.00
2023-02-08T00:24:58.194Z,0.80
2023-02-08T00:27:26.259Z,0.60
2023-02-08T00:29:54.459Z,0.30
2023-02-08T00:32:22.611Z,0.30
2023-02-08T00:34:51.653Z,0.60
2023-02-08T00:37:21.738Z,0.50
2023-02-08T00:39:51.280Z,0.40
2023-02-08T00:42:19.502Z,0.00
2023-02-08T00:44:47.922Z,0.20
2023-02-08T00:47:16.061Z,0.40
2023-02-08T00:49:44.231Z,0.20
2023-02-08T00:52:12.454Z,0.10
2023-02-08T00:54:42.418Z,0.20
2023-02-08T00:57:10.745Z,0.40
2023-02-08T00:59:38.846Z,0.40
2023-02-08T01:02:07.538Z,0.10
2023-02-08T01:04:35.746Z,0.40
2023-02-08T01:07:03.989Z,0.10
2023-02-08T01:09:32.646Z,0.30
2023-02-08T01:12:02.476Z,0.50
2023-02-08T01:14:31.182Z,0.70
2023-02-08T01:16:59.905Z,0.70
2023-02-08T01:19:28.112Z,0.50
2023-02-08T01:21:56.422Z,0.70
2023-02-08T01:24:25.103Z,0.50
2023-02-08T01:26:53.513Z,0.70
2023-02-08T01:29:22.985Z,0.40
2023-02-08T01:31:51.430Z,0.20
2023-02-08T01:34:19.581Z,0.20
2023-02-08T01:36:48.360Z,0.40
2023-02-08T01:39:16.530Z,0.60
2023-02-08T01:41:47.341Z,0.60
2023-02-08T01:45:02.080Z,0.30
2023-02-08T01:47:33.086Z,-0.30
2023-02-08T01:50:01.771Z,0.00
2023-02-08T01:52:30.179Z,0.30
2023-02-08T01:55:01.565Z,0.10
2023-02-08T01:57:30.490Z,-0.10
2023-02-08T02:00:02.868Z,-0.30
2023-02-08T02:02:45.024Z,-0.10
2023-02-08T02:05:14.451Z,0.10
2023-02-08T02:07:42.685Z,0.30
2023-02-08T02:10:16.150Z,0.30
2023-02-08T02:12:45.892Z,0.30
2023-02-08T02:15:15.645Z,0.30
2023-02-08T02:17:45.374Z,0.40
2023-02-08T02:20:20.093Z,0.30
2023-02-08T02:23:14.840Z,0.30
2023-02-08T02:26:18.437Z,0.30
2023-02-08T02:29:16.309Z,0.30
2023-02-08T02:32:03.370Z,0.30
2023-02-08T02:34:40.448Z,0.20
2023-02-08T02:37:16.677Z,0.00
2023-02-08T02:39:53.775Z,0.10
2023-02-08T02:42:45.946Z,0.00
2023-02-08T02:45:22.623Z,0.10
2023-02-08T02:47:58.392Z,0.10
2023-02-08T02:50:33.987Z,0.20
2023-02-08T02:53:07.129Z,0.20
2023-02-08T02:55:41.340Z,0.10
2023-02-08T02:58:12.219Z,0.00
2023-02-08T03:00:40.808Z,-0.60
2023-02-08T03:03:21.287Z,-0.60
2023-02-08T03:05:49.814Z,-0.50
2023-02-08T03:08:33.925Z,-0.70
2023-02-08T03:11:16.905Z,-0.50
2023-02-08T03:14:10.629Z,-0.40
2023-02-08T03:16:55.069Z,-0.50
2023-02-08T03:19:32.518Z,-0.40
2023-02-08T03:22:06.712Z,-0.40
2023-02-08T03:24:43.617Z,-0.30
2023-02-08T03:27:18.970Z,-0.30
2023-02-08T03:29:56.582Z,-1.40
2023-02-08T03:32:30.033Z,-1.70
2023-02-08T03:35:04.878Z,-1.80
2023-02-08T03:37:38.729Z,-1.40
2023-02-08T03:40:12.569Z,-1.90
2023-02-08T03:42:43.007Z,-1.70
2023-02-08T03:45:17.133Z,-1.40
2023-02-08T03:47:47.913Z,-1.50
2023-02-08T03:50:20.213Z,-1.40
2023-02-08T03:52:50.333Z,-1.00
2023-02-08T03:55:21.577Z,-1.20
2023-02-08T03:57:53.963Z,-1.40
2023-02-08T04:00:22.927Z,-1.70
2023-02-08T04:02:57.475Z,-1.40
2023-02-08T04:05:27.040Z,-1.50
2023-02-08T04:07:55.132Z,-1.50
2023-02-08T04:10:23.391Z,-1.20
2023-02-08T04:12:51.938Z,-1.00
2023-02-08T04:15:20.255Z,-1.10
2023-02-08T04:17:48.363Z,-1.80
2023-02-08T04:20:16.536Z,-2.40
2023-02-08T04:22:46.108Z,-2.20
2023-02-08T04:25:15.729Z,-1.90
2023-02-08T04:27:43.835Z,-1.50
2023-02-08T04:30:13.681Z,-1.30
2023-02-08T04:32:41.796Z,-1.80
2023-02-08T04:35:10.182Z,-2.50
2023-02-08T04:37:38.970Z,-2.60
2023-02-08T04:40:10.219Z,-2.30
2023-02-08T04:42:38.364Z,-1.80
2023-02-08T04:45:06.917Z,-1.60
2023-02-08T04:47:35.120Z,-2.00
2023-02-08T04:50:03.453Z,-1.90
2023-02-08T04:52:31.718Z,-1.60
2023-02-08T04:54:59.797Z,-1.40
2023-02-08T04:57:29.354Z,-1.50
2023-02-08T04:59:59.997Z,-1.90
2023-02-08T05:02:28.528Z,-2.50
2023-02-08T05:04:56.913Z,-2.30
2023-02-08T05:07:25.107Z,-1.80
2023-02-08T05:09:53.427Z,-1.60
2023-02-08T05:12:21.603Z,-1.50
2023-02-08T05:14:51.361Z,-1.80
2023-02-08T05:17:19.612Z,-1.90
2023-02-08T05:19:48.077Z,-2.70
2023-02-08T05:22:17.085Z,-2.60
2023-02-08T05:24:45.660Z,-2.40
2023-02-08T05:27:13.771Z,-2.10
2023-02-08T05:29:43.055Z,-1.70
2023-02-08T05:32:12.801Z,-1.70
2023-02-08T05:34:41.102Z,-1.50
2023-02-08T05:37:09.261Z,-1.30
2023-02-08T05:39:37.625Z,-1.30
2023-02-08T05:42:05.912Z,-1.20
2023-02-08T05:44:34.274Z,-1.70
2023-02-08T05:47:04.071Z,-2.20
2023-02-08T05:49:33.628Z,-1.90
2023-02-08T05:52:01.839Z,-1.80
2023-02-08T05:54:29.948Z,-1.70
2023-02-08T05:56:58.151Z,-2.10
2023-02-08T05:59:26.231Z,-2.20
2023-02-08T06:01:54.405Z,-1.90
2023-02-08T06:04:22.694Z,-2.10
2023-02-08T06:06:52.422Z,-1.80
2023-02-08T06:09:20.678Z,-2.10
2023-02-08T06:11:48.947Z,-1.90
2023-02-08T06:14:17.379Z,-1.80
2023-02-08T06:16:45.594Z,-1.90
2023-02-08T06:19:14.445Z,-1.90
2023-02-08T06:21:42.627Z,-1.80
2023-02-08T06:24:13.699Z,-2.00
2023-02-08T06:26:41.894Z,-2.10
2023-02-08T06:29:10.129Z,-1.90
2023-02-08T06:31:38.392Z,-1.80
2023-02-08T06:34:06.629Z,-1.70
2023-02-08T06:36:34.995Z,-1.80
2023-02-08T06:39:03.284Z,-1.80
2023-02-08T06:41:32.766Z,-1.70
2023-02-08T06:44:01.592Z,-1.70
2023-02-08T06:46:30.271Z,-1.70
2023-02-08T06:49:00.447Z,-2.10
2023-02-08T06:51:29.013Z,-1.90
2023-02-08T06:53:57.285Z,-2.10
2023-02-08T06:56:25.466Z,-2.60
2023-02-08T06:58:55.147Z,-2.80
2023-02-08T07:01:23.620Z,-2.40
2023-02-08T07:03:52.114Z,-2.20
2023-02-08T07:06:21.369Z,-2.50
2023-02-08T07:08:49.566Z,-3.00
2023-02-08T07:11:20.361Z,-3.10
2023-02-08T07:13:49.013Z,-2.80
2023-02-08T07:16:19.862Z,-2.50
2023-02-08T07:18:48.323Z,-2.70
2023-02-08T07:21:16.986Z,-2.70
2023-02-08T07:23:45.449Z,-2.40
2023-02-08T07:26:15.712Z,-2.20
2023-02-08T07:28:44.161Z,-1.90
2023-02-08T07:31:15.327Z,-2.00
2023-02-08T07:33:45.454Z,-2.30
2023-02-08T07:36:13.642Z,-2.00
2023-02-08T07:38:41.758Z,-1.90
2023-02-08T07:41:12.098Z,-2.40
2023-02-08T07:43:42.042Z,-2.80
2023-02-08T07:46:11.658Z,-2.90
2023-02-08T07:48:40.601Z,-2.60
2023-02-08T07:51:10.689Z,-2.60
2023-02-08T07:53:39.587Z,-2.40
2023-02-08T07:56:08.013Z,-2.10
2023-02-08T07:58:36.129Z,-1.90
2023-02-08T08:01:19.608Z,-2.10
2023-02-08T08:03:50.125Z,-1.90
2023-02-08T08:06:20.002Z,-2.00
2023-02-08T08:08:48.199Z,-2.10
2023-02-08T08:11:17.385Z,-1.90
2023-02-08T08:13:45.929Z,-1.80
2023-02-08T08:16:14.616Z,-1.90
2023-02-08T08:18:42.741Z,-1.90
2023-02-08T08:21:11.062Z,-2.00
2023-02-08T08:23:41.097Z,-2.10
2023-02-08T08:26:11.060Z,-2.10
2023-02-08T08:28:39.610Z,-2.20
2023-02-08T08:31:12.274Z,-2.20
2023-02-08T08:33:40.649Z,-2.20
2023-02-08T08:36:09.736Z,-2.10
2023-02-08T08:38:39.463Z,-2.00
2023-02-08T08:41:15.268Z,-2.00
2023-02-08T08:43:43.388Z,-1.90
2023-02-08T08:46:11.754Z,-2.00
2023-02-08T08:48:40.035Z,-1.80
2023-02-08T08:51:09.739Z,-1.80
2023-02-08T08:53:38.273Z,-1.90
2023-02-08T08:56:07.190Z,-1.80
2023-02-08T08:58:36.697Z,-1.80
2023-02-08T09:01:05.502Z,-1.80
2023-02-08T09:03:33.780Z,-1.80
2023-02-08T09:06:01.975Z,-1.80
2023-02-08T09:08:30.049Z,-1.80
2023-02-08T09:10:58.143Z,-1.70
2023-02-08T09:13:26.359Z,-1.80
2023-02-08T09:15:55.915Z,-1.70
2023-02-08T09:18:24.091Z,-1.70
2023-02-08T09:20:52.330Z,-1.60
2023-02-08T09:23:20.452Z,-1.50
2023-02-08T09:25:50.057Z,-1.50
2023-02-08T09:28:18.295Z,-1.40
2023-02-08T09:30:46.465Z,-1.40
2023-02-08T09:33:16.099Z,-1.30
2023-02-08T09:35:44.473Z,-1.20
2023-02-08T09:38:12.918Z,-1.30
2023-02-08T09:40:49.131Z,-1.20
2023-02-08T09:43:23.901Z,-1.20
2023-02-08T09:46:00.101Z,-1.10
2023-02-08T09:48:34.952Z,-0.80
2023-02-08T09:51:10.041Z,-0.80
2023-02-08T09:53:44.876Z,-0.60
2023-02-08T09:56:16.732Z,-0.60
2023-02-08T09:58:49.554Z,-0.80
2023-02-08T10:01:22.248Z,-0.80
2023-02-08T10:03:54.579Z,-0.70
2023-02-08T10:06:23.181Z,-0.70
2023-02-08T10:08:53.861Z,-0.60
2023-02-08T10:11:50.361Z,-0.50
2023-02-08T10:14:44.699Z,-0.40
2023-02-08T10:17:29.740Z,-0.20
2023-02-08T10:20:06.833Z,-0.10
2023-02-08T10:22:45.490Z,0.00
2023-02-08T10:25:26.580Z,0.00
2023-02-08T10:28:11.695Z,0.00
2023-02-08T10:30:50.142Z,0.10
2023-02-08T10:33:21.788Z,0.20
2023-02-08T10:35:52.758Z,0.30
2023-02-08T10:38:45.366Z,0.30
2023-02-08T10:41:19.726Z,0.40
2023-02-08T10:43:53.241Z,0.50
2023-02-08T10:46:27.058Z,0.50
2023-02-08T10:49:04.759Z,0.60
2023-02-08T10:51:34.439Z,0.70
2023-02-08T10:54:02.661Z,0.80
2023-02-08T10:56:47.693Z,0.80
2023-02-08T10:59:20.043Z,0.90
2023-02-08T11:01:50.920Z,0.90
2023-02-08T11:04:19.767Z,0.90
2023-02-08T11:06:50.731Z,1.00
2023-02-08T11:09:29.130Z,1.10
2023-02-08T11:11:57.758Z,1.20
2023-02-08T11:14:45.560Z,1.20
2023-02-08T11:17:27.461Z,1.30
2023-02-08T11:19:55.917Z,1.50
2023-02-08T11:22:28.969Z,1.60
2023-02-08T11:25:00.129Z,1.60
2023-02-08T11:27:34.863Z,1.50
2023-02-08T11:30:21.601Z,1.50
2023-02-08T11:33:09.855Z,1.50
2023-02-08T11:35:38.223Z,1.70
2023-02-08T11:38:09.427Z,1.60
2023-02-08T11:40:43.865Z,1.70
2023-02-08T11:43:22.503Z,1.80
2023-02-08T11:45:51.507Z,1.80
2023-02-08T11:48:25.597Z,1.90
2023-02-08T11:50:57.248Z,2.00
2023-02-08T11:53:31.400Z,2.00
2023-02-08T11:56:17.825Z,2.00
2023-02-08T11:59:06.750Z,2.20
2023-02-08T12:01:36.451Z,2.30
2023-02-08T12:04:07.749Z,2.40
2023-02-08T12:07:05.919Z,2.40
2023-02-08T12:10:10.036Z,2.40
2023-02-08T12:12:51.237Z,2.50
2023-02-08T12:15:27.477Z,2.60
2023-02-08T12:18:21.635Z,2.60
2023-02-08T12:20:54.383Z,2.70
2023-02-08T12:23:49.194Z,2.80
2023-02-08T12:26:33.585Z,2.90
2023-02-08T12:29:18.434Z,3.00
2023-02-08T12:32:15.566Z,3.10
2023-02-08T12:34:57.098Z,3.10
2023-02-08T12:37:53.293Z,3.10
2023-02-08T12:40:50.875Z,3.30
2023-02-08T12:43:33.141Z,3.40
2023-02-08T12:46:12.496Z,3.40
2023-02-08T12:49:07.733Z,3.60
2023-02-08T12:51:44.069Z,3.60
2023-02-08T12:54:16.271Z,3.60
2023-02-08T12:57:01.529Z,3.60
2023-02-08T12:59:36.859Z,3.70
2023-02-08T13:02:13.190Z,3.80
2023-02-08T13:04:46.131Z,4.00
2023-02-08T13:07:19.249Z,4.10
2023-02-08T13:09:53.137Z,4.10
2023-02-08T13:12:25.192Z,4.10
2023-02-08T13:15:01.890Z,4.20
2023-02-08T13:17:43.557Z,4.10
2023-02-08T13:20:24.401Z,4.10
2023-02-08T13:22:56.154Z,4.10
2023-02-08T13:25:30.996Z,4.10
2023-02-08T13:28:02.483Z,4.20
2023-02-08T13:30:33.782Z,4.20
2023-02-08T13:33:09.944Z,4.30
2023-02-08T13:35:40.023Z,4.20
2023-02-08T13:38:20.043Z,4.30
2023-02-08T13:40:48.171Z,4.30
2023-02-08T13:43:35.197Z,4.30
2023-02-08T13:46:06.686Z,4.40
2023-02-08T13:48:50.545Z,4.50
2023-02-08T13:51:59.696Z,4.50
2023-02-08T13:54:28.078Z,4.50
2023-02-08T13:56:56.661Z,4.50
2023-02-08T13:59:36.670Z,4.60
2023-02-08T14:02:23.660Z,4.60
2023-02-08T14:04:53.286Z,4.60
2023-02-08T14:07:28.766Z,4.70
2023-02-08T14:10:09.647Z,4.70
2023-02-08T14:12:43.544Z,4.70
2023-02-08T14:15:34.592Z,4.70
2023-02-08T14:18:04.994Z,5.10
2023-02-08T14:20:39.810Z,5.00
2023-02-08T14:23:22.028Z,4.80
2023-02-08T14:25:52.550Z,4.80
2023-02-08T14:28:30.401Z,4.80
2023-02-08T14:31:01.743Z,4.70
2023-02-08T14:33:34.672Z,4.70
2023-02-08T14:36:06.067Z,4.70
2023-02-08T14:38:51.625Z,4.60
2023-02-08T14:41:44.608Z,4.70
2023-02-08T14:44:55.581Z,4.70
2023-02-08T14:48:04.146Z,4.80
2023-02-08T14:50:42.252Z,4.70
2023-02-08T14:53:28.310Z,4.70
2023-02-08T14:56:03.737Z,4.70
2023-02-08T14:58:35.838Z,5.10
2023-02-08T15:01:08.279Z,4.90
2023-02-08T15:03:37.142Z,4.80
2023-02-08T15:06:36.824Z,4.80
2023-02-08T15:09:06.201Z,4.80
2023-02-08T15:11:36.562Z,4.70
2023-02-08T15:14:06.585Z,4.70
2023-02-08T15:16:37.672Z,4.70
2023-02-08T15:19:08.454Z,4.60
2023-02-08T15:21:38.860Z,4.50
2023-02-08T15:24:16.285Z,4.50
2023-02-08T15:26:48.330Z,4.60
2023-02-08T15:29:24.616Z,4.60
2023-02-08T15:31:55.527Z,4.60
2023-02-08T15:34:26.116Z,4.50
2023-02-08T15:36:57.701Z,4.50
2023-02-08T15:39:38.548Z,4.50
2023-02-08T15:42:07.569Z,4.50
2023-02-08T15:44:36.307Z,4.50
2023-02-08T15:47:06.625Z,4.40
2023-02-08T15:49:37.800Z,4.30
2023-02-08T15:52:08.900Z,4.40
2023-02-08T15:54:37.099Z,4.30
2023-02-08T15:57:09.634Z,4.40
2023-02-08T15:59:40.538Z,4.70
2023-02-08T16:02:23.028Z,4.60
2023-02-08T16:04:51.431Z,4.60
2023-02-08T16:07:26.651Z,4.50
2023-02-08T16:09:55.442Z,4.30
2023-02-08T16:12:25.798Z,4.40
2023-02-08T16:14:56.738Z,4.70
2023-02-08T16:17:37.433Z,4.90
2023-02-08T16:20:23.133Z,5.10
2023-02-08T16:23:01.500Z,5.20
2023-02-08T16:25:45.363Z,5.20
2023-02-08T16:28:27.838Z,5.20
2023-02-08T16:30:57.362Z,5.00
2023-02-08T16:33:26.234Z,4.80
2023-02-08T16:36:01.658Z,4.60
2023-02-08T16:38:34.814Z,4.80
2023-02-08T16:41:13.088Z,5.00
2023-02-08T16:43:44.250Z,5.00
2023-02-08T16:46:26.792Z,5.00
2023-02-08T16:48:56.255Z,4.80
2023-02-08T16:51:27.146Z,4.90
2023-02-08T16:54:02.438Z,4.90
2023-02-08T16:56:30.734Z,4.90
2023-02-08T16:58:58.981Z,4.80
2023-02-08T17:01:28.634Z,4.80
2023-02-08T17:03:56.885Z,4.80
2023-02-08T17:06:30.638Z,4.70
2023-02-08T17:09:01.853Z,4.60
2023-02-08T17:11:30.421Z,4.50
2023-02-08T17:13:59.056Z,4.50
2023-02-08T17:16:29.470Z,4.40
2023-02-08T17:18:57.939Z,4.40
2023-02-08T17:21:26.181Z,4.30
2023-02-08T17:23:54.614Z,4.20
2023-02-08T17:26:27.709Z,4.10
2023-02-08T17:28:56.766Z,4.10
2023-02-08T17:31:25.173Z,3.90
2023-02-08T17:33:53.413Z,3.90
2023-02-08T17:36:21.528Z,3.90
2023-02-08T17:38:49.648Z,3.80
2023-02-08T17:41:20.185Z,3.70
2023-02-08T17:43:52.148Z,3.70
2023-02-08T17:46:22.490Z,3.60
2023-02-08T17:48:50.673Z,3.50
2023-02-08T17:51:21.146Z,3.40
2023-02-08T17:53:49.348Z,3.30
2023-02-08T17:56:20.058Z,3.30
2023-02-08T17:58:53.595Z,3.20
2023-02-08T18:01:25.260Z,3.20
2023-02-08T18:03:54.265Z,3.20
2023-02-08T18:06:25.091Z,3.20
2023-02-08T18:08:53.766Z,3.20
2023-02-08T18:11:23.426Z,3.20
2023-02-08T18:13:54.739Z,3.20
2023-02-08T18:16:24.450Z,3.20
2023-02-08T18:18:52.972Z,3.10
2023-02-08T18:21:24.406Z,3.10
2023-02-08T18:23:52.936Z,3.10
2023-02-08T18:26:22.361Z,3.10
2023-02-08T18:28:53.337Z,3.10
2023-02-08T18:31:22.141Z,3.00
2023-02-08T18:33:51.157Z,3.00
2023-02-08T18:36:20.780Z,3.00
2023-02-08T18:38:51.395Z,3.00
2023-02-08T18:41:21.560Z,3.00
2023-02-08T18:43:51.183Z,2.90
2023-02-08T18:46:23.053Z,2.80
2023-02-08T18:48:51.760Z,2.90
2023-02-08T18:51:21.336Z,2.90
2023-02-08T18:53:51.533Z,2.80
2023-02-08T18:56:24.029Z,2.80
2023-02-08T18:58:52.840Z,2.80
2023-02-08T19:01:24.118Z,2.70
2023-02-08T19:03:52.908Z,2.60
2023-02-08T19:06:24.665Z,2.60
2023-02-08T19:08:54.868Z,2.50
2023-02-08T19:11:25.365Z,2.50
2023-02-08T19:13:55.875Z,2.50
2023-02-08T19:16:27.551Z,2.50
2023-02-08T19:18:57.629Z,2.30
2023-02-08T19:21:25.731Z,2.30
2023-02-08T19:23:54.599Z,2.20
2023-02-08T19:26:24.733Z,2.20
2023-02-08T19:28:54.387Z,2.20
2023-02-08T19:31:25.803Z,2.10
2023-02-08T19:33:58.448Z,2.10
2023-02-08T19:36:28.508Z,2.00
2023-02-08T19:38:57.713Z,2.00
2023-02-08T19:41:28.519Z,1.60
2023-02-08T19:43:56.735Z,1.80
2023-02-08T19:46:27.584Z,1.60
2023-02-08T19:49:00.094Z,1.40
2023-02-08T19:51:30.347Z,1.60
2023-02-08T19:53:58.565Z,1.60
2023-02-08T19:56:26.807Z,1.70
2023-02-08T19:58:55.375Z,1.70
2023-02-08T20:01:25.705Z,1.60
2023-02-08T20:03:55.073Z,1.60
2023-02-08T20:06:25.793Z,1.30
2023-02-08T20:08:54.802Z,1.40
2023-02-08T20:11:25.949Z,1.20
2023-02-08T20:13:54.698Z,0.80
2023-02-08T20:16:23.360Z,1.10
2023-02-08T20:18:53.142Z,1.20
2023-02-08T20:21:21.469Z,1.30
2023-02-08T20:23:50.196Z,1.40
2023-02-08T20:26:20.922Z,1.40
2023-02-08T20:28:51.307Z,1.40
2023-02-08T20:31:21.811Z,1.30
2023-02-08T20:33:50.728Z,1.30
2023-02-08T20:36:23.081Z,1.30
2023-02-08T20:38:53.299Z,1.20
2023-02-08T20:41:22.442Z,1.20
2023-02-08T20:43:51.230Z,0.80
2023-02-08T20:46:22.249Z,0.80
2023-02-08T20:48:51.366Z,1.00
2023-02-08T20:51:22.830Z,1.10
2023-02-08T20:53:51.968Z,1.10
2023-02-08T20:56:22.649Z,1.00
2023-02-08T20:58:51.262Z,1.00
2023-02-08T21:01:21.773Z,0.90
2023-02-08T21:03:50.621Z,0.80
2023-02-08T21:06:22.139Z,1.00
2023-02-08T21:08:52.043Z,1.10
2023-02-08T21:11:22.181Z,1.10
2023-02-08T21:13:50.929Z,1.10
2023-02-08T21:16:19.791Z,1.20
2023-02-08T21:18:48.220Z,1.10
2023-02-08T21:21:16.600Z,1.00
2023-02-08T21:23:47.488Z,0.90
2023-02-08T21:26:17.725Z,0.80
2023-02-08T21:28:46.265Z,0.70
2023-02-08T21:31:16.933Z,0.60
2023-02-08T21:33:45.839Z,0.50
2023-02-08T21:36:15.645Z,0.50
2023-02-08T21:38:45.630Z,0.50
2023-02-08T21:41:16.473Z,0.40
2023-02-08T21:43:44.842Z,0.50
2023-02-08T21:46:13.732Z,0.60
2023-02-08T21:48:59.182Z,0.60
2023-02-08T21:51:45.088Z,0.60
2023-02-08T21:54:34.570Z,0.60
2023-02-08T21:57:04.103Z,0.20
2023-02-08T21:59:36.615Z,0.30
2023-02-08T22:02:06.727Z,0.30
2023-02-08T22:04:35.374Z,0.10
2023-02-08T22:07:04.724Z,0.40
2023-02-08T22:09:35.945Z,0.50
2023-02-08T22:12:04.080Z,0.40
2023-02-08T22:14:35.432Z,0.30
2023-02-08T22:17:03.910Z,0.50
2023-02-08T22:19:32.087Z,0.70
2023-02-08T22:22:00.332Z,0.90
2023-02-08T22:24:28.467Z,0.80
2023-02-08T22:26:57.961Z,1.00
2023-02-08T22:29:26.148Z,0.90
2023-02-08T22:31:54.565Z,0.90
2023-02-08T22:34:22.757Z,0.80
2023-02-08T22:36:50.873Z,0.80
2023-02-08T22:39:19.014Z,0.70
2023-02-08T22:41:47.197Z,0.80
2023-02-08T22:44:16.904Z,0.90
2023-02-08T22:46:45.199Z,0.80
2023-02-08T22:49:13.418Z,0.80
2023-02-08T22:51:41.505Z,0.90
2023-02-08T22:54:09.761Z,0.90
2023-02-08T22:56:38.061Z,0.90
2023-02-08T22:59:06.211Z,0.90
2023-02-08T23:01:35.762Z,0.80
2023-02-08T23:04:04.034Z,0.90
2023-02-08T23:06:32.278Z,0.80
2023-02-08T23:09:00.558Z,0.80
2023-02-08T23:11:28.851Z,0.30
2023-02-08T23:13:56.980Z,0.40
2023-02-08T23:16:25.665Z,0.50
2023-02-08T23:18:55.204Z,0.60
2023-02-08T23:21:23.387Z,0.70
2023-02-08T23:23:51.520Z,0.70
2023-02-08T23:26:21.377Z,0.80
2023-02-08T23:28:51.412Z,0.70
2023-02-08T23:31:20.983Z,0.70
2023-02-08T23:33:49.718Z,0.70
2023-02-08T23:36:22.591Z,-0.20
2023-02-08T23:38:51.194Z,-0.70
2023-02-08T23:41:21.904Z,-0.60
2023-02-08T23:43:51.091Z,-0.30
2023-02-08T23:46:21.567Z,0.00
2023-02-08T23:48:49.881Z,0.30
2023-02-08T23:51:21.459Z,0.40
2023-02-08T23:53:50.456Z,0.60
2023-02-08T23:56:20.131Z,0.50
2023-02-08T23:58:50.712Z,0.60
